« 令和2年富山市消防海上出初式 富山市 2020/1/12 sun | トップページ | 定点 富山空港 2020/1/14 tue »

2020/01/13

定点 富山空港 2020/1/11 sat

魚津での海上出初式を終えて、河原に向けて転戦。

RJNT 110100Z 18007KT 9999 FEW040 08/M01 Q1016

20200111_rjnt_00ja82an

ANA315 RJTT-RJNT JA82AN B737-881

20200111_rjnt_01jintsu

偶然、富山市消防局の消防艇「神通」が通過

20200111_rjnt_02b6908

上空待機に入った南方さんが見えてます

20200111_rjnt_03b6908

MEDICインバウンド

RJNT 110200Z 18005KT 110V220 9999 FEW040 10/M01 Q1014

20200111_rjnt_04b6908

CSN613 ZYTL-RJNT B-6908 A320-232

20200111_rjnt_05jcg

新湊沖で捜索中の「やひこ」さんと「たちかぜ」さんが見えます。

RJNT 110300Z 21004KT 150V270 9999 FEW040 12/M03 Q1013

20200111_rjnt_06ja6768

JA6768 B412EP 富山県消防防災

20200111_rjnt_07ja82an

ANA1181 RJNT-RJCC JA82AN B737-881

20200111_rjnt_08ja10ym

JA10YM A109SP 富山県ドクターヘリ ANAの下を南砺事案

20200111_rjnt_09ja82an

Pさんの山見せサービスかな

20200111_rjnt_10b6908

20200111_rjnt_11b6908

CSN614 RJNT-ZYTL B-6908 A320-232

20200111_rjnt_12b6908

20200111_rjnt_13tateyama

それにしても、美し過ぎる立山連峰

20200111_rjnt_14ja6768

給油して外置 まだ出動する予定かな

(15時過ぎに海保のJA970Aと交代して捜索へ)

RJNT 110400Z 18006KT 130V210 9999 FEW040 12/M04 Q1013

20200111_rjnt_15b5269

20200111_rjnt_16b5269

CSH825 ZSPD-RJNT B-5269 B737-76D

20200111_rjnt_17b5269

これは春の陽気

RJNT 110500Z 26010KT 9999 FEW040 BKN060 14/01 Q1012

20200111_rjnt_18b5269

CSH826 RJNT-ZSPD B-5269 B737-76D

20200111_rjnt_19b5269

RJNT 110600Z 28010KT 9999 VCSH FEW030 BKN060 BKN100 12/01 Q1012

20200111_rjnt_20ja10ym

JA10M 帰路、黒部事案のドクヘリさんを

|

« 令和2年富山市消防海上出初式 富山市 2020/1/12 sun | トップページ | 定点 富山空港 2020/1/14 tue »

富山空港」カテゴリの記事

コメント

コメントを書く



(ウェブ上には掲載しません)


コメントは記事投稿者が公開するまで表示されません。



« 令和2年富山市消防海上出初式 富山市 2020/1/12 sun | トップページ | 定点 富山空港 2020/1/14 tue »